createdAt,value
2018-04-17T00:00:29.385Z,99.90
2018-04-17T00:02:56.847Z,99.90
2018-04-17T00:05:25.132Z,99.90
2018-04-17T00:07:53.795Z,99.90
2018-04-17T00:10:21.356Z,99.90
2018-04-17T00:12:48.919Z,99.90
2018-04-17T00:15:16.690Z,99.90
2018-04-17T00:17:44.964Z,99.90
2018-04-17T00:20:12.520Z,99.90
2018-04-17T00:22:40.277Z,99.90
2018-04-17T00:25:07.841Z,99.90
2018-04-17T00:27:35.601Z,99.90
2018-04-17T00:30:03.469Z,99.90
2018-04-17T00:32:31.245Z,99.90
2018-04-17T00:34:59.717Z,99.90
2018-04-17T00:37:27.192Z,99.90
2018-04-17T00:39:56.156Z,99.90
2018-04-17T00:42:24.525Z,99.90
2018-04-17T00:44:52.300Z,99.90
2018-04-17T00:47:19.860Z,99.90
2018-04-17T00:49:47.409Z,99.90
2018-04-17T00:52:14.959Z,99.90
2018-04-17T00:54:42.745Z,99.90
2018-04-17T00:57:10.404Z,99.90
2018-04-17T00:59:37.943Z,99.90
2018-04-17T01:02:05.423Z,99.90
2018-04-17T01:04:33.293Z,99.90
2018-04-17T01:07:00.948Z,99.90
2018-04-17T01:09:28.513Z,99.90
2018-04-17T01:11:56.472Z,99.90
2018-04-17T01:14:24.032Z,99.90
2018-04-17T01:16:51.595Z,99.90
2018-04-17T01:19:19.355Z,99.90
2018-04-17T01:21:46.922Z,99.90
2018-04-17T01:24:14.685Z,99.90
2018-04-17T01:26:42.546Z,99.90
2018-04-17T01:29:10.109Z,99.90
2018-04-17T01:31:37.869Z,99.90
2018-04-17T01:34:05.743Z,99.90
2018-04-17T01:36:34.316Z,99.90
2018-04-17T01:39:01.880Z,99.90
2018-04-17T01:41:31.185Z,99.90
2018-04-17T01:43:58.841Z,99.90
2018-04-17T01:46:26.381Z,99.90
2018-04-17T01:48:53.932Z,99.90
2018-04-17T01:51:21.500Z,99.90
2018-04-17T01:53:49.058Z,99.90
2018-04-17T01:56:16.860Z,99.90
2018-04-17T01:58:44.421Z,99.90
2018-04-17T02:01:12.680Z,99.90
2018-04-17T02:03:40.545Z,99.90
2018-04-17T02:06:08.016Z,99.90
2018-04-17T02:08:36.580Z,99.90
2018-04-17T02:11:04.258Z,99.90
2018-04-17T02:13:32.629Z,99.90
2018-04-17T02:16:00.283Z,99.90
2018-04-17T02:18:27.949Z,99.90
2018-04-17T02:20:55.513Z,99.90
2018-04-17T02:23:23.480Z,99.90
2018-04-17T02:25:51.044Z,99.90
2018-04-17T02:28:19.360Z,99.90
2018-04-17T02:30:47.077Z,99.90
2018-04-17T02:33:14.721Z,99.90
2018-04-17T02:35:42.380Z,99.90
2018-04-17T02:38:09.845Z,99.90
2018-04-17T02:40:37.399Z,99.90
2018-04-17T02:43:05.383Z,99.90
2018-04-17T02:45:33.140Z,99.90
2018-04-17T02:48:00.804Z,99.90
2018-04-17T02:50:28.272Z,99.90
2018-04-17T02:52:56.845Z,99.90
2018-04-17T02:55:24.644Z,99.90
2018-04-17T02:57:52.273Z,99.90
2018-04-17T03:00:20.028Z,99.90
2018-04-17T03:02:47.699Z,99.90
2018-04-17T03:05:15.933Z,99.90
2018-04-17T03:07:43.836Z,99.90
2018-04-17T03:10:11.601Z,99.90
2018-04-17T03:12:39.176Z,99.90
2018-04-17T03:15:07.905Z,99.90
2018-04-17T03:17:35.448Z,99.90
2018-04-17T03:20:03.271Z,99.90
2018-04-17T03:22:31.181Z,99.90
2018-04-17T03:24:58.696Z,99.90
2018-04-17T03:27:26.369Z,99.90
2018-04-17T03:29:54.728Z,99.90
2018-04-17T03:32:23.968Z,99.90
2018-04-17T03:34:51.596Z,99.90
2018-04-17T03:37:19.768Z,99.90
2018-04-17T03:39:47.628Z,99.90
2018-04-17T03:42:15.287Z,99.90
2018-04-17T03:44:43.361Z,99.90
2018-04-17T03:47:10.836Z,99.90
2018-04-17T03:49:39.071Z,99.90
2018-04-17T03:52:06.856Z,99.90
2018-04-17T03:54:34.429Z,99.90
2018-04-17T03:57:03.205Z,99.90
2018-04-17T03:59:30.768Z,99.90
2018-04-17T04:01:58.525Z,99.90
2018-04-17T04:04:26.301Z,99.90
2018-04-17T04:06:54.057Z,99.90
2018-04-17T04:09:21.925Z,99.90
2018-04-17T04:11:49.596Z,99.90
2018-04-17T04:14:18.620Z,99.90
2018-04-17T04:16:58.540Z,99.90
2018-04-17T04:19:38.784Z,99.90
2018-04-17T04:22:18.426Z,99.90
2018-04-17T04:24:57.841Z,99.90
2018-04-17T04:27:26.057Z,99.90
2018-04-17T04:29:53.604Z,99.90
2018-04-17T04:32:21.872Z,99.90
2018-04-17T04:34:50.358Z,99.90
2018-04-17T04:37:18.681Z,99.90
2018-04-17T04:39:46.316Z,99.90
2018-04-17T04:42:14.257Z,99.90
2018-04-17T04:44:42.424Z,99.90
2018-04-17T04:47:09.992Z,99.90
2018-04-17T04:49:37.456Z,99.90
2018-04-17T04:52:05.928Z,99.90
2018-04-17T04:54:33.603Z,99.90
2018-04-17T04:57:01.828Z,99.90
2018-04-17T04:59:30.570Z,99.90
2018-04-17T05:01:58.800Z,99.90
2018-04-17T05:04:26.297Z,99.90
2018-04-17T05:06:54.860Z,99.90
2018-04-17T05:09:22.343Z,99.90
2018-04-17T05:11:50.595Z,99.90
2018-04-17T05:14:18.094Z,99.90
2018-04-17T05:16:45.916Z,99.90
2018-04-17T05:19:13.461Z,99.90
2018-04-17T05:21:41.023Z,99.90
2018-04-17T05:24:08.750Z,99.90
2018-04-17T05:26:37.288Z,99.90
2018-04-17T05:29:05.169Z,99.90
2018-04-17T05:31:33.405Z,99.90
2018-04-17T05:34:00.872Z,99.90
2018-04-17T05:36:28.644Z,99.90
2018-04-17T05:38:57.120Z,99.90
2018-04-17T05:41:24.628Z,99.90
2018-04-17T05:43:52.097Z,99.90
2018-04-17T05:46:19.621Z,99.90
2018-04-17T05:48:47.924Z,99.90
2018-04-17T05:51:15.537Z,99.90
2018-04-17T05:53:43.001Z,99.90
2018-04-17T05:56:11.312Z,99.90
2018-04-17T05:58:39.283Z,99.90
2018-04-17T06:01:06.808Z,99.90
2018-04-17T06:03:35.175Z,99.90
2018-04-17T06:06:03.249Z,99.90
2018-04-17T06:08:31.031Z,99.90
2018-04-17T06:10:59.293Z,99.90
2018-04-17T06:13:27.569Z,99.90
2018-04-17T06:15:55.836Z,99.90
2018-04-17T06:18:23.306Z,99.90
2018-04-17T06:20:52.086Z,99.90
2018-04-17T06:23:19.907Z,99.90
2018-04-17T06:25:48.424Z,99.90
2018-04-17T06:28:16.187Z,99.90
2018-04-17T06:30:43.794Z,99.70
2018-04-17T06:33:12.033Z,99.90
2018-04-17T06:35:40.269Z,99.90
2018-04-17T06:38:07.761Z,99.90
2018-04-17T06:40:36.589Z,99.90
2018-04-17T06:43:04.107Z,99.90
2018-04-17T06:45:32.488Z,98.50
2018-04-17T06:48:00.139Z,98.60
2018-04-17T06:50:27.690Z,99.20
2018-04-17T06:52:55.364Z,99.40
2018-04-17T06:55:22.830Z,99.50
2018-04-17T06:57:51.205Z,98.90
2018-04-17T07:00:18.740Z,98.60
2018-04-17T07:02:46.523Z,99.50
2018-04-17T07:05:14.079Z,98.80
2018-04-17T07:07:41.999Z,99.30
2018-04-17T07:10:09.472Z,97.70
2018-04-17T07:12:36.994Z,95.90
2018-04-17T07:15:05.248Z,93.80
2018-04-17T07:17:33.492Z,93.00
2018-04-17T07:20:01.280Z,92.90
2018-04-17T07:22:29.047Z,92.00
2018-04-17T07:24:56.608Z,93.30
2018-04-17T07:27:24.164Z,92.40
2018-04-17T07:29:51.830Z,90.80
2018-04-17T07:32:19.392Z,90.50
2018-04-17T07:34:47.665Z,90.40
2018-04-17T07:37:15.524Z,90.40
2018-04-17T07:39:43.084Z,89.50
2018-04-17T07:42:11.413Z,89.10
2018-04-17T07:44:39.095Z,89.10
2018-04-17T07:47:18.497Z,88.50
2018-04-17T07:49:46.125Z,88.50
2018-04-17T07:52:14.447Z,88.00
2018-04-17T07:54:42.260Z,87.80
2018-04-17T07:57:10.589Z,82.30
2018-04-17T07:59:38.304Z,82.20
2018-04-17T08:02:06.988Z,81.80
2018-04-17T08:04:34.451Z,81.80
2018-04-17T08:07:02.840Z,80.20
2018-04-17T08:09:31.304Z,76.10
2018-04-17T08:11:58.977Z,76.00
2018-04-17T08:14:27.508Z,71.40
2018-04-17T08:16:55.018Z,71.30
2018-04-17T08:19:23.251Z,72.70
2018-04-17T08:21:50.894Z,72.70
2018-04-17T08:24:18.528Z,70.70
2018-04-17T08:26:46.005Z,71.20
2018-04-17T08:29:13.725Z,69.50
2018-04-17T08:31:41.280Z,71.60
2018-04-17T08:34:08.865Z,70.40
2018-04-17T08:36:36.814Z,69.70
2018-04-17T08:39:04.292Z,69.90
2018-04-17T08:41:32.748Z,67.10
2018-04-17T08:44:00.517Z,67.10
2018-04-17T08:46:28.178Z,65.70
2018-04-17T08:48:56.450Z,65.40
2018-04-17T08:51:23.903Z,66.30
2018-04-17T08:53:51.577Z,65.20
2018-04-17T08:56:19.951Z,65.40
2018-04-17T08:58:47.698Z,65.40
2018-04-17T09:01:16.040Z,64.70
2018-04-17T09:03:43.621Z,64.60
2018-04-17T09:06:11.210Z,66.20
2018-04-17T09:08:40.605Z,65.90
2018-04-17T09:11:08.212Z,65.90
2018-04-17T09:13:35.740Z,63.60
2018-04-17T09:16:04.211Z,59.50
2018-04-17T09:18:32.492Z,59.70
2018-04-17T09:21:01.068Z,59.10
2018-04-17T09:23:28.713Z,58.90
2018-04-17T09:25:56.389Z,58.90
2018-04-17T09:28:24.079Z,58.90
2018-04-17T09:30:51.550Z,57.40
2018-04-17T09:33:19.012Z,54.30
2018-04-17T09:35:47.031Z,53.00
2018-04-17T09:38:14.600Z,52.30
2018-04-17T09:40:42.360Z,53.90
2018-04-17T09:43:09.912Z,52.00
2018-04-17T09:45:37.476Z,52.60
2018-04-17T09:48:05.240Z,53.40
2018-04-17T09:50:33.614Z,53.10
2018-04-17T09:53:01.073Z,53.50
2018-04-17T09:55:29.349Z,49.80
2018-04-17T09:57:58.133Z,51.80
2018-04-17T10:00:26.025Z,51.90
2018-04-17T10:02:54.485Z,51.30
2018-04-17T10:05:22.348Z,51.20
2018-04-17T10:07:50.113Z,53.50
2018-04-17T10:10:18.080Z,52.90
2018-04-17T10:12:47.613Z,51.00
2018-04-17T10:15:15.859Z,53.20
2018-04-17T10:17:43.624Z,53.10
2018-04-17T10:20:11.100Z,51.90
2018-04-17T10:22:39.444Z,49.80
2018-04-17T10:25:07.331Z,49.70
2018-04-17T10:27:35.709Z,53.50
2018-04-17T10:30:03.384Z,52.80
2018-04-17T10:32:31.848Z,51.10
2018-04-17T10:35:01.049Z,51.10
2018-04-17T10:37:29.675Z,47.70
2018-04-17T10:39:57.168Z,47.60
2018-04-17T10:42:24.750Z,46.30
2018-04-17T10:44:52.453Z,48.50
2018-04-17T10:47:19.972Z,47.10
2018-04-17T10:49:48.292Z,48.10
2018-04-17T10:52:16.103Z,47.60
2018-04-17T10:54:43.563Z,47.90
2018-04-17T10:57:11.029Z,46.70
2018-04-17T10:59:39.495Z,46.60
2018-04-17T11:02:06.956Z,46.60
2018-04-17T11:04:34.437Z,47.10
2018-04-17T11:07:02.767Z,45.30
2018-04-17T11:09:30.420Z,45.20
2018-04-17T11:11:58.129Z,44.60
2018-04-17T11:14:26.392Z,43.70
2018-04-17T11:16:53.855Z,43.80
2018-04-17T11:19:21.380Z,43.90
2018-04-17T11:21:48.980Z,41.60
2018-04-17T11:24:17.559Z,43.10
2018-04-17T11:26:45.217Z,43.10
2018-04-17T11:29:12.693Z,40.90
2018-04-17T11:31:41.260Z,46.00
2018-04-17T11:34:09.020Z,45.90
2018-04-17T11:36:36.520Z,41.90
2018-04-17T11:39:10.010Z,43.10
2018-04-17T11:41:37.477Z,40.10
2018-04-17T11:44:04.957Z,40.60
2018-04-17T11:46:32.759Z,39.20
2018-04-17T11:49:01.141Z,40.30
2018-04-17T11:51:29.409Z,40.30
2018-04-17T11:53:57.068Z,40.20
2018-04-17T11:56:24.632Z,40.60
2018-04-17T11:58:52.217Z,39.30
2018-04-17T12:01:20.056Z,38.90
2018-04-17T12:03:47.822Z,40.60
2018-04-17T12:06:15.400Z,41.60
2018-04-17T12:08:44.080Z,40.80
2018-04-17T12:11:12.369Z,41.10
2018-04-17T12:13:39.844Z,41.10
2018-04-17T12:16:07.665Z,38.20
2018-04-17T12:18:35.252Z,40.60
2018-04-17T12:21:02.717Z,40.50
2018-04-17T12:23:30.219Z,39.70
2018-04-17T12:25:57.688Z,40.20
2018-04-17T12:28:25.356Z,40.80
2018-04-17T12:30:53.316Z,39.50
2018-04-17T12:33:20.806Z,38.30
2018-04-17T12:35:48.445Z,38.20
2018-04-17T12:38:16.679Z,37.80
2018-04-17T12:40:44.276Z,38.10
2018-04-17T12:43:11.750Z,37.90
2018-04-17T12:45:40.023Z,39.30
2018-04-17T12:48:07.664Z,39.30
2018-04-17T12:50:35.157Z,39.00
2018-04-17T12:53:02.761Z,37.20
2018-04-17T12:55:30.324Z,37.40
2018-04-17T12:57:57.827Z,38.50
2018-04-17T13:00:25.433Z,37.50
2018-04-17T13:02:52.916Z,37.20
2018-04-17T13:05:20.584Z,37.10
2018-04-17T13:07:48.441Z,36.70
2018-04-17T13:10:17.173Z,36.60
2018-04-17T13:12:45.000Z,36.60
2018-04-17T13:15:13.037Z,35.70
2018-04-17T13:17:40.640Z,35.00
2018-04-17T13:20:08.901Z,34.90
2018-04-17T13:22:36.568Z,34.90
2018-04-17T13:25:04.124Z,33.50
2018-04-17T13:27:31.987Z,35.20
2018-04-17T13:29:59.552Z,35.70
2018-04-17T13:32:27.312Z,37.60
2018-04-17T13:34:54.977Z,37.20
2018-04-17T13:37:22.724Z,35.70
2018-04-17T13:39:50.196Z,36.70
2018-04-17T13:42:17.771Z,37.30
2018-04-17T13:44:46.133Z,38.80
2018-04-17T13:47:13.676Z,38.80
2018-04-17T13:49:41.460Z,37.80
2018-04-17T13:52:09.012Z,38.20
2018-04-17T13:54:36.589Z,42.30
2018-04-17T13:57:05.057Z,41.10
2018-04-17T13:59:37.573Z,41.00
2018-04-17T14:02:05.504Z,42.70
2018-04-17T14:04:32.969Z,42.50
2018-04-17T14:07:01.236Z,40.60
2018-04-17T14:09:28.852Z,40.70
2018-04-17T14:11:56.765Z,43.00
2018-04-17T14:14:25.340Z,44.10
2018-04-17T14:16:53.344Z,44.10
2018-04-17T14:19:20.982Z,43.70
2018-04-17T14:21:49.528Z,44.50
2018-04-17T14:24:26.200Z,44.50
2018-04-17T14:26:54.085Z,43.00
2018-04-17T14:29:21.612Z,45.00
2018-04-17T14:31:49.146Z,45.40
2018-04-17T14:34:16.786Z,47.00
2018-04-17T14:36:45.565Z,47.10
2018-04-17T14:39:14.660Z,44.70
2018-04-17T14:41:42.426Z,44.70
2018-04-17T14:44:11.000Z,49.10
2018-04-17T14:46:38.549Z,48.90
2018-04-17T14:49:06.136Z,48.90
2018-04-17T14:51:34.364Z,50.00
2018-04-17T14:54:01.860Z,49.90
2018-04-17T14:56:30.241Z,49.70
2018-04-17T14:58:58.721Z,49.40
2018-04-17T15:01:27.205Z,49.90
2018-04-17T15:03:55.574Z,50.20
2018-04-17T15:06:24.157Z,50.70
2018-04-17T15:08:51.659Z,50.40
2018-04-17T15:11:19.167Z,49.30
2018-04-17T15:13:47.036Z,49.60
2018-04-17T15:16:16.017Z,49.80
2018-04-17T15:18:44.806Z,50.60
2018-04-17T15:21:12.785Z,50.40
2018-04-17T15:23:40.288Z,50.20
2018-04-17T15:26:07.917Z,49.10
2018-04-17T15:28:36.214Z,50.30
2018-04-17T15:31:03.749Z,50.10
2018-04-17T15:33:31.504Z,50.20
2018-04-17T15:35:59.069Z,50.10
2018-04-17T15:38:26.733Z,51.70
2018-04-17T15:40:54.212Z,51.00
2018-04-17T15:43:22.441Z,51.00
2018-04-17T15:45:50.428Z,50.90
2018-04-17T15:48:17.990Z,51.30
2018-04-17T15:50:45.570Z,51.00
2018-04-17T15:53:14.028Z,52.60
2018-04-17T15:55:41.508Z,52.50
2018-04-17T15:58:09.740Z,52.20
2018-04-17T16:00:37.510Z,52.10
2018-04-17T16:03:05.806Z,52.90
2018-04-17T16:05:34.193Z,52.10
2018-04-17T16:08:02.752Z,51.80
2018-04-17T16:10:31.148Z,53.00
2018-04-17T16:12:58.916Z,53.00
2018-04-17T16:15:27.576Z,52.50
2018-04-17T16:17:55.050Z,52.50
2018-04-17T16:20:24.697Z,54.00
2018-04-17T16:22:52.217Z,53.50
2018-04-17T16:25:19.980Z,54.20
2018-04-17T16:27:47.749Z,49.40
2018-04-17T16:30:16.145Z,53.80
2018-04-17T16:32:44.917Z,56.20
2018-04-17T16:35:13.236Z,58.00
2018-04-17T16:37:40.792Z,57.30
2018-04-17T16:40:08.364Z,54.80
2018-04-17T16:42:35.998Z,52.50
2018-04-17T16:45:03.634Z,55.50
2018-04-17T16:47:31.102Z,56.70
2018-04-17T16:49:59.640Z,56.40
2018-04-17T16:52:27.213Z,56.30
2018-04-17T16:54:54.680Z,59.20
2018-04-17T16:57:23.196Z,59.40
2018-04-17T16:59:50.929Z,59.40
2018-04-17T17:02:18.699Z,58.70
2018-04-17T17:04:47.073Z,58.20
2018-04-17T17:07:15.145Z,55.20
2018-04-17T17:09:42.618Z,57.50
2018-04-17T17:12:10.904Z,61.20
2018-04-17T17:14:38.749Z,61.20
2018-04-17T17:17:07.324Z,64.30
2018-04-17T17:19:35.216Z,63.30
2018-04-17T17:22:02.860Z,67.00
2018-04-17T17:24:31.097Z,69.70
2018-04-17T17:26:58.960Z,69.50
2018-04-17T17:29:26.419Z,71.40
2018-04-17T17:31:53.888Z,73.90
2018-04-17T17:34:21.553Z,75.90
2018-04-17T17:36:49.134Z,77.20
2018-04-17T17:39:17.472Z,77.60
2018-04-17T17:41:45.054Z,77.10
2018-04-17T17:44:12.702Z,74.30
2018-04-17T17:46:40.221Z,70.10
2018-04-17T17:49:07.687Z,71.60
2018-04-17T17:51:35.216Z,68.80
2018-04-17T17:54:03.785Z,73.90
2018-04-17T17:56:31.765Z,73.90
2018-04-17T17:59:00.021Z,80.70
2018-04-17T18:01:27.996Z,80.60
2018-04-17T18:03:56.375Z,74.20
2018-04-17T18:06:23.804Z,74.10
2018-04-17T18:08:51.896Z,75.30
2018-04-17T18:11:19.381Z,72.10
2018-04-17T18:13:47.844Z,83.60
2018-04-17T18:16:16.192Z,82.00
2018-04-17T18:18:43.876Z,81.30
2018-04-17T18:21:11.547Z,88.40
2018-04-17T18:23:40.022Z,83.60
2018-04-17T18:26:07.675Z,84.10
2018-04-17T18:28:35.337Z,82.70
2018-04-17T18:31:02.805Z,82.20
2018-04-17T18:33:30.433Z,89.10
2018-04-17T18:35:58.000Z,89.30
2018-04-17T18:38:25.556Z,84.30
2018-04-17T18:40:53.336Z,90.40
2018-04-17T18:43:20.912Z,89.40
2018-04-17T18:45:49.148Z,85.40
2018-04-17T18:48:16.920Z,85.40
2018-04-17T18:50:44.392Z,87.60
2018-04-17T18:53:11.933Z,89.10
2018-04-17T18:55:39.480Z,90.60
2018-04-17T18:58:07.069Z,90.50
2018-04-17T19:00:34.632Z,90.60
2018-04-17T19:03:02.396Z,85.90
2018-04-17T19:05:29.956Z,88.10
2018-04-17T19:07:57.622Z,88.00
2018-04-17T19:10:26.168Z,90.20
2018-04-17T19:12:53.659Z,90.20
2018-04-17T19:15:21.516Z,91.00
2018-04-17T19:17:49.188Z,91.10
2018-04-17T19:20:17.777Z,90.70
2018-04-17T19:22:46.144Z,89.50
2018-04-17T19:25:13.716Z,89.30
2018-04-17T19:27:41.977Z,90.40
2018-04-17T19:30:09.608Z,90.40
2018-04-17T19:32:37.200Z,91.20
2018-04-17T19:35:04.676Z,91.40
2018-04-17T19:37:32.935Z,92.70
2018-04-17T19:40:00.895Z,92.70
2018-04-17T19:42:28.569Z,93.10
2018-04-17T19:44:56.329Z,93.00
2018-04-17T19:47:24.100Z,92.00
2018-04-17T19:49:52.464Z,92.50
2018-04-17T19:52:20.028Z,92.00
2018-04-17T19:54:47.687Z,92.30
2018-04-17T19:57:15.949Z,92.90
2018-04-17T19:59:44.448Z,92.90
2018-04-17T20:02:12.068Z,92.40
2018-04-17T20:04:39.569Z,92.30
2018-04-17T20:07:07.632Z,92.40
2018-04-17T20:09:35.204Z,92.40
2018-04-17T20:12:02.765Z,92.50
2018-04-17T20:14:30.824Z,92.50
2018-04-17T20:16:58.503Z,93.70
2018-04-17T20:19:26.264Z,95.30
2018-04-17T20:21:53.851Z,94.60
2018-04-17T20:24:21.393Z,95.10
2018-04-17T20:26:49.672Z,95.00
2018-04-17T20:29:17.946Z,94.60
2018-04-17T20:31:46.246Z,95.50
2018-04-17T20:34:14.660Z,96.30
2018-04-17T20:36:42.240Z,96.30
2018-04-17T20:39:09.924Z,96.40
2018-04-17T20:41:38.396Z,96.50
2018-04-17T20:44:06.172Z,96.80
2018-04-17T20:46:34.548Z,96.60
2018-04-17T20:49:02.869Z,96.90
2018-04-17T20:51:30.784Z,96.40
2018-04-17T20:53:58.254Z,96.60
2018-04-17T20:56:26.623Z,97.00
2018-04-17T20:58:54.171Z,96.90
2018-04-17T21:01:21.947Z,97.10
2018-04-17T21:03:50.337Z,97.70
2018-04-17T21:06:18.952Z,98.00
2018-04-17T21:08:46.525Z,98.00
2018-04-17T21:11:14.185Z,98.10
2018-04-17T21:13:41.744Z,98.20
2018-04-17T21:16:09.620Z,98.30
2018-04-17T21:18:37.321Z,98.30
2018-04-17T21:21:04.793Z,98.80
2018-04-17T21:23:33.365Z,99.30
2018-04-17T21:26:00.996Z,99.30
2018-04-17T21:28:28.488Z,99.60
2018-04-17T21:30:56.244Z,99.50
2018-04-17T21:33:24.225Z,99.90
2018-04-17T21:35:52.596Z,99.90
2018-04-17T21:38:20.178Z,99.80
2018-04-17T21:40:48.845Z,99.90
2018-04-17T21:43:16.708Z,99.90
2018-04-17T21:45:44.264Z,99.90
2018-04-17T21:48:12.140Z,99.90
2018-04-17T21:50:39.896Z,99.90
2018-04-17T21:53:07.560Z,99.90
2018-04-17T21:55:35.533Z,99.90
2018-04-17T21:58:03.184Z,99.90
2018-04-17T22:00:30.853Z,99.90
2018-04-17T22:02:58.617Z,99.90
2018-04-17T22:05:26.281Z,99.90
2018-04-17T22:07:54.049Z,99.90
2018-04-17T22:10:22.084Z,99.90
2018-04-17T22:12:49.580Z,99.90
2018-04-17T22:15:17.839Z,99.90
2018-04-17T22:17:46.034Z,99.90
2018-04-17T22:20:14.401Z,99.90
2018-04-17T22:22:42.069Z,99.90
2018-04-17T22:25:10.757Z,99.90
2018-04-17T22:27:38.325Z,99.90
2018-04-17T22:30:06.597Z,99.90
2018-04-17T22:32:35.267Z,99.90
2018-04-17T22:35:03.044Z,99.90
2018-04-17T22:37:30.596Z,99.90
2018-04-17T22:39:58.161Z,99.90
2018-04-17T22:42:27.100Z,99.90
2018-04-17T22:44:54.564Z,99.90
2018-04-17T22:47:22.135Z,99.90
2018-04-17T22:49:50.036Z,99.90
2018-04-17T22:52:17.580Z,99.90
2018-04-17T22:54:45.048Z,99.90
2018-04-17T22:57:12.603Z,99.90
2018-04-17T22:59:40.291Z,99.90
2018-04-17T23:02:08.664Z,99.90
2018-04-17T23:04:37.735Z,99.90
2018-04-17T23:07:05.416Z,99.90
2018-04-17T23:09:33.608Z,99.90
2018-04-17T23:12:01.777Z,99.90
2018-04-17T23:14:30.257Z,99.90
2018-04-17T23:16:58.012Z,99.90
2018-04-17T23:19:25.886Z,99.90
2018-04-17T23:21:53.453Z,99.90
2018-04-17T23:24:21.117Z,99.90
2018-04-17T23:26:48.980Z,99.90
2018-04-17T23:29:16.645Z,99.90
2018-04-17T23:31:44.408Z,99.90
2018-04-17T23:34:11.885Z,99.90
2018-04-17T23:36:40.248Z,99.90
2018-04-17T23:39:08.016Z,99.90
2018-04-17T23:41:35.785Z,99.90
2018-04-17T23:44:04.169Z,99.90
2018-04-17T23:46:32.484Z,99.90
2018-04-17T23:49:00.005Z,99.90
2018-04-17T23:51:28.621Z,99.90
2018-04-17T23:53:56.137Z,99.90
2018-04-17T23:56:23.830Z,99.90
2018-04-17T23:58:51.663Z,99.90
